createdAt,value
2023-05-08T00:00:25.135Z,36.89
2023-05-08T00:01:25.171Z,37.97
2023-05-08T00:02:25.237Z,35.85
2023-05-08T00:03:25.447Z,35.37
2023-05-08T00:04:25.362Z,36.77
2023-05-08T00:05:25.385Z,33.10
2023-05-08T00:06:25.429Z,36.28
2023-05-08T00:07:25.501Z,37.41
2023-05-08T00:08:25.550Z,35.25
2023-05-08T00:09:25.564Z,35.48
2023-05-08T00:10:25.604Z,37.11
2023-05-08T00:11:25.675Z,36.77
2023-05-08T00:12:25.747Z,36.03
2023-05-08T00:13:25.949Z,35.83
2023-05-08T00:14:25.832Z,35.94
2023-05-08T00:15:25.899Z,34.81
2023-05-08T00:16:26.262Z,36.12
2023-05-08T00:17:26.045Z,36.17
2023-05-08T00:18:26.009Z,36.65
2023-05-08T00:19:26.095Z,36.23
2023-05-08T00:20:26.156Z,34.36
2023-05-08T00:21:26.173Z,34.58
2023-05-08T00:22:26.237Z,35.45
2023-05-08T00:23:26.292Z,33.80
2023-05-08T00:24:26.340Z,36.63
2023-05-08T00:25:26.396Z,37.34
2023-05-08T00:26:26.715Z,34.56
2023-05-08T00:27:26.496Z,35.32
2023-05-08T00:28:26.529Z,37.44
2023-05-08T00:29:26.598Z,34.23
2023-05-08T00:30:26.653Z,34.96
2023-05-08T00:31:26.734Z,35.46
2023-05-08T00:32:26.803Z,36.99
2023-05-08T00:33:26.808Z,35.37
2023-05-08T00:34:26.854Z,35.81
2023-05-08T00:35:26.893Z,34.59
2023-05-08T00:36:26.920Z,35.52
2023-05-08T00:37:27.043Z,37.52
2023-05-08T00:38:27.043Z,39.62
2023-05-08T00:39:27.126Z,37.26
2023-05-08T00:40:27.275Z,35.68
2023-05-08T00:41:27.202Z,36.08
2023-05-08T00:42:27.270Z,37.72
2023-05-08T00:43:27.288Z,34.99
2023-05-08T00:44:27.365Z,33.59
2023-05-08T00:45:27.424Z,36.31
2023-05-08T00:46:27.533Z,33.61
2023-05-08T00:47:27.545Z,37.91
2023-05-08T00:48:27.568Z,33.86
2023-05-08T00:49:27.630Z,35.09
2023-05-08T00:50:27.675Z,35.53
2023-05-08T00:51:27.749Z,35.92
2023-05-08T00:52:27.750Z,39.18
2023-05-08T00:53:27.849Z,36.68
2023-05-08T00:54:27.858Z,34.99
2023-05-08T00:55:27.998Z,34.81
2023-05-08T00:56:27.981Z,35.73
2023-05-08T00:57:28.026Z,34.65
2023-05-08T00:58:28.070Z,36.94
2023-05-08T00:59:28.142Z,37.25
2023-05-08T01:00:28.183Z,38.09
2023-05-08T01:01:28.754Z,34.30
2023-05-08T01:02:28.362Z,35.54
2023-05-08T01:03:28.433Z,34.98
2023-05-08T01:04:28.395Z,34.87
2023-05-08T01:05:28.479Z,33.51
2023-05-08T01:06:28.518Z,35.39
2023-05-08T01:07:28.576Z,33.29
2023-05-08T01:08:28.637Z,35.02
2023-05-08T01:09:28.652Z,33.13
2023-05-08T01:10:28.744Z,33.29
2023-05-08T01:11:28.782Z,35.70
2023-05-08T01:12:28.816Z,38.05
2023-05-08T01:13:28.868Z,35.35
2023-05-08T01:14:28.906Z,33.47
2023-05-08T01:15:28.988Z,36.96
2023-05-08T01:16:29.061Z,36.44
2023-05-08T01:17:29.105Z,35.75
2023-05-08T01:18:29.144Z,32.48
2023-05-08T01:19:29.177Z,35.00
2023-05-08T01:20:29.214Z,37.41
2023-05-08T01:21:29.256Z,36.21
2023-05-08T01:22:29.306Z,34.98
2023-05-08T01:23:29.382Z,34.20
2023-05-08T01:24:29.406Z,34.03
2023-05-08T01:25:29.468Z,35.11
2023-05-08T01:26:29.531Z,35.45
2023-05-08T01:27:29.587Z,35.42
2023-05-08T01:28:29.627Z,34.53
2023-05-08T01:29:29.669Z,34.74
2023-05-08T01:30:29.751Z,35.12
2023-05-08T01:31:29.770Z,35.31
2023-05-08T01:32:29.859Z,34.28
2023-05-08T01:33:29.930Z,34.30
2023-05-08T01:34:29.898Z,34.55
2023-05-08T01:35:30.012Z,35.47
2023-05-08T01:36:30.010Z,35.50
2023-05-08T01:37:30.056Z,35.72
2023-05-08T01:38:30.142Z,37.72
2023-05-08T01:39:30.180Z,34.72
2023-05-08T01:40:30.219Z,35.29
2023-05-08T01:41:30.292Z,37.52
2023-05-08T01:42:30.324Z,36.61
2023-05-08T01:43:30.376Z,35.70
2023-05-08T01:44:30.405Z,36.80
2023-05-08T01:45:30.485Z,34.98
2023-05-08T01:46:30.758Z,37.29
2023-05-08T01:47:30.624Z,35.01
2023-05-08T01:48:30.617Z,34.24
2023-05-08T01:49:30.682Z,36.79
2023-05-08T01:50:31.241Z,36.34
2023-05-08T01:51:31.234Z,37.88
2023-05-08T01:52:30.843Z,36.21
2023-05-08T01:53:30.859Z,36.95
2023-05-08T01:54:30.911Z,31.64
2023-05-08T01:55:31.036Z,36.37
2023-05-08T01:56:31.007Z,36.35
2023-05-08T01:57:31.055Z,34.72
2023-05-08T01:58:31.128Z,36.64
2023-05-08T01:59:31.200Z,35.74
2023-05-08T02:00:31.289Z,36.38
2023-05-08T02:01:31.291Z,37.33
2023-05-08T02:02:31.386Z,35.35
2023-05-08T02:03:31.363Z,38.28
2023-05-08T02:04:31.429Z,36.32
2023-05-08T02:05:31.523Z,35.41
2023-05-08T02:06:31.618Z,35.87
2023-05-08T02:07:31.598Z,34.53
2023-05-08T02:08:31.648Z,33.96
2023-05-08T02:09:31.679Z,35.76
2023-05-08T02:10:31.747Z,36.14
2023-05-08T02:11:32.247Z,38.60
2023-05-08T02:12:31.846Z,35.29
2023-05-08T02:13:31.896Z,33.57
2023-05-08T02:14:31.957Z,37.07
2023-05-08T02:15:32.015Z,33.50
2023-05-08T02:16:32.096Z,37.43
2023-05-08T02:17:32.123Z,34.83
2023-05-08T02:18:32.166Z,35.26
2023-05-08T02:19:32.192Z,36.89
2023-05-08T02:20:32.274Z,33.26
2023-05-08T02:21:32.320Z,35.26
2023-05-08T02:22:32.401Z,34.84
2023-05-08T02:23:32.453Z,35.41
2023-05-08T02:24:32.477Z,37.64
2023-05-08T02:25:32.549Z,34.77
2023-05-08T02:26:32.597Z,35.10
2023-05-08T02:27:32.595Z,33.72
2023-05-08T02:28:32.680Z,35.12
2023-05-08T02:29:32.785Z,34.95
2023-05-08T02:30:32.779Z,34.76
2023-05-08T02:31:32.884Z,33.72
2023-05-08T02:32:32.932Z,36.58
2023-05-08T02:33:32.942Z,36.66
2023-05-08T02:34:33.041Z,34.84
2023-05-08T02:35:33.081Z,34.88
2023-05-08T02:36:33.261Z,38.11
2023-05-08T02:37:33.130Z,33.75
2023-05-08T02:38:33.214Z,37.04
2023-05-08T02:39:33.261Z,36.24
2023-05-08T02:40:33.331Z,35.89
2023-05-08T02:41:33.394Z,35.05
2023-05-08T02:42:33.423Z,33.26
2023-05-08T02:43:33.477Z,35.77
2023-05-08T02:44:33.540Z,33.87
2023-05-08T02:45:33.573Z,34.18
2023-05-08T02:46:33.707Z,37.53
2023-05-08T02:47:33.755Z,36.07
2023-05-08T02:48:33.770Z,33.90
2023-05-08T02:49:33.800Z,33.29
2023-05-08T02:50:33.857Z,35.46
2023-05-08T02:51:33.919Z,35.18
2023-05-08T02:52:33.968Z,34.83
2023-05-08T02:53:34.015Z,31.53
2023-05-08T02:54:34.039Z,34.65
2023-05-08T02:55:34.098Z,33.12
2023-05-08T02:56:34.194Z,32.83
2023-05-08T02:57:34.209Z,34.35
2023-05-08T02:58:34.267Z,33.07
2023-05-08T02:59:34.314Z,37.00
2023-05-08T03:00:34.400Z,33.34
2023-05-08T03:01:34.801Z,37.67
2023-05-08T03:02:34.554Z,34.41
2023-05-08T03:03:34.695Z,35.65
2023-05-08T03:04:34.607Z,34.77
2023-05-08T03:05:34.625Z,33.57
2023-05-08T03:06:34.691Z,32.70
2023-05-08T03:07:34.741Z,35.68
2023-05-08T03:08:34.792Z,34.99
2023-05-08T03:09:34.861Z,34.74
2023-05-08T03:10:34.918Z,33.87
2023-05-08T03:11:35.296Z,37.02
2023-05-08T03:12:35.033Z,33.36
2023-05-08T03:13:35.063Z,34.01
2023-05-08T03:14:35.103Z,35.86
2023-05-08T03:15:35.257Z,34.12
2023-05-08T03:16:35.218Z,35.72
2023-05-08T03:17:35.385Z,33.04
2023-05-08T03:18:35.339Z,35.01
2023-05-08T03:19:35.400Z,36.74
2023-05-08T03:20:35.447Z,35.62
2023-05-08T03:21:35.516Z,32.52
2023-05-08T03:22:35.773Z,34.02
2023-05-08T03:23:35.639Z,36.12
2023-05-08T03:24:35.692Z,34.05
2023-05-08T03:25:35.737Z,32.52
2023-05-08T03:26:35.756Z,34.21
2023-05-08T03:27:35.826Z,34.18
2023-05-08T03:28:35.878Z,37.11
2023-05-08T03:29:35.929Z,33.30
2023-05-08T03:30:35.961Z,32.35
2023-05-08T03:31:36.111Z,32.56
2023-05-08T03:32:36.089Z,34.87
2023-05-08T03:33:36.125Z,33.59
2023-05-08T03:34:36.214Z,34.69
2023-05-08T03:35:36.252Z,34.36
2023-05-08T03:36:36.291Z,35.08
2023-05-08T03:37:36.775Z,35.00
2023-05-08T03:38:36.363Z,34.26
2023-05-08T03:39:36.403Z,33.04
2023-05-08T03:40:36.497Z,34.42
2023-05-08T03:41:36.560Z,38.45
2023-05-08T03:42:36.592Z,35.00
2023-05-08T03:43:36.638Z,33.57
2023-05-08T03:44:36.677Z,35.67
2023-05-08T03:45:36.754Z,34.23
2023-05-08T03:46:36.845Z,34.46
2023-05-08T03:47:36.881Z,35.32
2023-05-08T03:48:36.902Z,33.94
2023-05-08T03:49:36.965Z,35.46
2023-05-08T03:50:37.031Z,35.99
2023-05-08T03:51:37.068Z,37.76
2023-05-08T03:52:37.075Z,36.13
2023-05-08T03:53:37.138Z,34.17
2023-05-08T03:54:37.191Z,32.97
2023-05-08T03:55:37.256Z,32.26
2023-05-08T03:56:37.299Z,32.60
2023-05-08T03:57:37.367Z,34.30
2023-05-08T03:58:37.432Z,37.36
2023-05-08T03:59:37.485Z,32.39
2023-05-08T04:00:37.547Z,31.90
2023-05-08T04:01:37.681Z,37.00
2023-05-08T04:02:38.789Z,35.65
2023-05-08T04:03:37.834Z,33.38
2023-05-08T04:04:37.756Z,33.11
2023-05-08T04:05:37.973Z,35.85
2023-05-08T04:06:48.607Z,34.30
2023-05-08T04:07:38.827Z,34.53
2023-05-08T04:08:37.881Z,34.58
2023-05-08T04:09:37.818Z,34.36
2023-05-08T04:10:37.829Z,34.99
2023-05-08T04:11:37.819Z,33.93
2023-05-08T04:12:37.866Z,36.89
2023-05-08T04:13:37.821Z,36.07
2023-05-08T04:14:37.793Z,35.07
2023-05-08T04:15:37.751Z,34.04
2023-05-08T04:16:37.937Z,33.22
2023-05-08T04:17:37.951Z,34.42
2023-05-08T04:18:37.953Z,34.21
2023-05-08T04:19:38.028Z,32.93
2023-05-08T04:20:38.030Z,36.09
2023-05-08T04:21:38.106Z,30.57
2023-05-08T04:22:38.148Z,35.05
2023-05-08T04:23:38.216Z,37.04
2023-05-08T04:24:38.311Z,36.83
2023-05-08T04:25:38.306Z,36.71
2023-05-08T04:26:38.376Z,33.44
2023-05-08T04:27:38.805Z,36.50
2023-05-08T04:28:38.477Z,35.33
2023-05-08T04:29:38.580Z,34.29
2023-05-08T04:30:38.628Z,35.73
2023-05-08T04:31:38.647Z,35.64
2023-05-08T04:32:40.544Z,33.90
2023-05-08T04:33:38.690Z,34.75
2023-05-08T04:34:38.672Z,33.91
2023-05-08T04:35:38.696Z,37.22
2023-05-08T04:36:38.663Z,34.43
2023-05-08T04:37:38.686Z,35.41
2023-05-08T04:38:38.649Z,33.84
2023-05-08T04:39:38.640Z,37.98
2023-05-08T04:40:38.694Z,37.89
2023-05-08T04:41:38.703Z,35.08
2023-05-08T04:42:38.651Z,35.88
2023-05-08T04:43:38.644Z,33.35
2023-05-08T04:44:38.614Z,34.77
2023-05-08T04:45:38.622Z,33.62
2023-05-08T04:46:38.617Z,33.66
2023-05-08T04:47:38.682Z,38.73
2023-05-08T04:48:38.596Z,36.62
2023-05-08T04:49:38.600Z,33.07
2023-05-08T04:50:38.583Z,34.62
2023-05-08T04:51:38.594Z,34.56
2023-05-08T04:52:38.573Z,35.29
2023-05-08T04:53:38.590Z,37.80
2023-05-08T04:54:38.597Z,34.22
2023-05-08T04:55:38.522Z,39.19
2023-05-08T04:56:38.580Z,36.53
2023-05-08T04:57:38.545Z,35.55
2023-05-08T04:58:38.538Z,36.55
2023-05-08T04:59:38.531Z,34.52
2023-05-08T05:00:38.529Z,33.84
2023-05-08T05:01:38.609Z,35.40
2023-05-08T05:02:38.630Z,36.94
2023-05-08T05:03:38.532Z,36.18
2023-05-08T05:04:38.484Z,34.39
2023-05-08T05:05:39.027Z,34.00
2023-05-08T05:06:38.499Z,37.94
2023-05-08T05:07:38.467Z,33.22
2023-05-08T05:08:38.450Z,32.84
2023-05-08T05:09:38.428Z,37.11
2023-05-08T05:10:38.434Z,35.40
2023-05-08T05:11:38.417Z,36.12
2023-05-08T05:12:38.508Z,34.61
2023-05-08T05:13:38.502Z,36.25
2023-05-08T05:14:38.511Z,35.20
2023-05-08T05:15:38.604Z,39.23
2023-05-08T05:16:38.777Z,40.05
2023-05-08T05:17:38.703Z,35.67
2023-05-08T05:18:38.763Z,33.74
2023-05-08T05:19:38.793Z,32.20
2023-05-08T05:20:38.875Z,36.20
2023-05-08T05:21:38.902Z,34.62
2023-05-08T05:22:39.338Z,35.13
2023-05-08T05:23:39.041Z,36.77
2023-05-08T05:24:39.051Z,34.51
2023-05-08T05:25:39.101Z,34.35
2023-05-08T05:26:39.157Z,36.28
2023-05-08T05:27:39.202Z,36.34
2023-05-08T05:28:39.251Z,33.20
2023-05-08T05:29:39.303Z,36.77
2023-05-08T05:30:39.406Z,33.59
2023-05-08T05:31:39.518Z,36.65
2023-05-08T05:32:39.517Z,36.00
2023-05-08T05:33:39.578Z,37.09
2023-05-08T05:34:39.585Z,32.90
2023-05-08T05:35:39.664Z,36.61
2023-05-08T05:36:39.685Z,38.52
2023-05-08T05:37:39.850Z,33.26
2023-05-08T05:38:39.774Z,34.89
2023-05-08T05:39:39.861Z,34.16
2023-05-08T05:40:40.841Z,37.88
2023-05-08T05:41:39.967Z,36.47
2023-05-08T05:42:40.026Z,34.28
2023-05-08T05:43:40.053Z,34.39
2023-05-08T05:44:40.140Z,37.82
2023-05-08T05:45:40.153Z,36.26
2023-05-08T05:46:42.089Z,33.89
2023-05-08T05:47:40.281Z,38.18
2023-05-08T05:48:40.191Z,37.36
2023-05-08T05:49:40.190Z,36.01
2023-05-08T05:50:40.173Z,36.42
2023-05-08T05:51:40.191Z,34.43
2023-05-08T05:52:40.141Z,34.16
2023-05-08T05:53:40.149Z,35.08
2023-05-08T05:54:40.160Z,35.80
2023-05-08T05:55:40.180Z,33.76
2023-05-08T05:56:40.138Z,36.96
2023-05-08T05:57:40.162Z,35.61
2023-05-08T05:58:40.125Z,34.10
2023-05-08T05:59:40.140Z,35.22
2023-05-08T06:00:40.125Z,34.22
2023-05-08T06:01:40.118Z,34.00
2023-05-08T06:02:40.181Z,35.87
2023-05-08T06:03:40.174Z,34.13
2023-05-08T06:04:40.096Z,34.98
2023-05-08T06:05:40.105Z,33.07
2023-05-08T06:06:40.075Z,36.07
2023-05-08T06:07:40.068Z,37.47
2023-05-08T06:08:40.070Z,36.31
2023-05-08T06:09:40.080Z,36.70
2023-05-08T06:10:40.074Z,35.44
2023-05-08T06:11:40.036Z,36.63
2023-05-08T06:12:40.048Z,35.37
2023-05-08T06:13:40.033Z,37.37
2023-05-08T06:14:40.062Z,34.60
2023-05-08T06:15:40.037Z,39.66
2023-05-08T06:16:40.057Z,36.37
2023-05-08T06:17:40.141Z,34.92
2023-05-08T06:18:40.012Z,36.22
2023-05-08T06:19:39.997Z,35.53
2023-05-08T06:20:40.003Z,35.58
2023-05-08T06:21:39.965Z,34.99
2023-05-08T06:22:39.985Z,36.44
2023-05-08T06:23:40.029Z,36.66
2023-05-08T06:24:40.077Z,33.68
2023-05-08T06:25:40.114Z,35.04
2023-05-08T06:26:40.149Z,33.62
2023-05-08T06:27:40.219Z,34.27
2023-05-08T06:28:40.263Z,37.33
2023-05-08T06:29:40.327Z,36.95
2023-05-08T06:30:40.422Z,33.86
2023-05-08T06:31:40.435Z,36.46
2023-05-08T06:32:40.506Z,36.84
2023-05-08T06:33:40.544Z,35.08
2023-05-08T06:34:40.611Z,36.93
2023-05-08T06:35:40.621Z,35.41
2023-05-08T06:36:40.716Z,34.14
2023-05-08T06:37:40.741Z,35.14
2023-05-08T06:38:40.793Z,35.33
2023-05-08T06:39:40.858Z,33.10
2023-05-08T06:40:40.920Z,36.48
2023-05-08T06:41:40.979Z,35.36
2023-05-08T06:42:41.043Z,36.08
2023-05-08T06:43:41.047Z,34.63
2023-05-08T06:44:41.125Z,39.33
2023-05-08T06:45:41.154Z,37.36
2023-05-08T06:46:41.260Z,34.94
2023-05-08T06:47:41.303Z,37.23
2023-05-08T06:48:41.330Z,36.46
2023-05-08T06:49:41.342Z,36.22
2023-05-08T06:50:41.406Z,35.69
2023-05-08T06:51:41.496Z,37.78
2023-05-08T06:52:41.563Z,34.14
2023-05-08T06:53:41.579Z,36.99
2023-05-08T06:54:41.622Z,33.72
2023-05-08T06:55:41.675Z,33.45
2023-05-08T06:56:41.745Z,35.93
2023-05-08T06:57:41.768Z,33.46
2023-05-08T06:58:41.831Z,36.12
2023-05-08T06:59:41.893Z,34.00
2023-05-08T07:00:41.940Z,36.47
2023-05-08T07:01:42.035Z,34.47
2023-05-08T07:02:42.414Z,35.38
2023-05-08T07:03:42.089Z,34.42
2023-05-08T07:04:42.237Z,36.69
2023-05-08T07:05:42.168Z,38.40
2023-05-08T07:06:42.276Z,34.26
2023-05-08T07:07:42.340Z,36.58
2023-05-08T07:08:42.369Z,37.07
2023-05-08T07:09:42.408Z,34.42
2023-05-08T07:10:42.448Z,35.70
2023-05-08T07:11:42.564Z,37.50
2023-05-08T07:12:42.574Z,35.38
2023-05-08T07:13:42.626Z,39.18
2023-05-08T07:14:42.642Z,35.26
2023-05-08T07:15:42.787Z,34.54
2023-05-08T07:16:42.789Z,35.82
2023-05-08T07:17:42.859Z,38.73
2023-05-08T07:18:42.825Z,36.82
2023-05-08T07:19:42.938Z,35.13
2023-05-08T07:20:42.976Z,36.59
2023-05-08T07:21:43.018Z,37.49
2023-05-08T07:22:43.428Z,36.49
2023-05-08T07:23:43.085Z,34.42
2023-05-08T07:24:43.146Z,37.75
2023-05-08T07:25:43.188Z,35.12
2023-05-08T07:26:43.284Z,30.92
2023-05-08T07:27:43.451Z,33.19
2023-05-08T07:28:43.432Z,37.05
2023-05-08T07:29:43.409Z,36.92
2023-05-08T07:30:43.476Z,37.13
2023-05-08T07:31:43.522Z,35.49
2023-05-08T07:32:43.576Z,33.90
2023-05-08T07:33:43.653Z,37.32
2023-05-08T07:34:43.714Z,36.04
2023-05-08T07:35:43.736Z,35.33
2023-05-08T07:36:43.785Z,34.02
2023-05-08T07:37:43.834Z,35.78
2023-05-08T07:38:43.887Z,34.96
2023-05-08T07:39:43.890Z,35.52
2023-05-08T07:40:44.018Z,35.70
2023-05-08T07:41:44.086Z,37.15
2023-05-08T07:42:44.399Z,36.41
2023-05-08T07:43:44.156Z,38.41
2023-05-08T07:44:53.714Z,38.03
2023-05-08T07:45:45.188Z,38.16
2023-05-08T07:46:44.282Z,38.29
2023-05-08T07:47:44.167Z,38.61
2023-05-08T07:48:44.166Z,37.93
2023-05-08T07:49:44.196Z,35.52
2023-05-08T07:50:44.140Z,39.04
2023-05-08T07:51:44.138Z,39.02
2023-05-08T07:52:44.106Z,39.05
2023-05-08T07:53:44.116Z,37.18
2023-05-08T07:54:44.156Z,36.97
2023-05-08T07:55:44.161Z,37.60
2023-05-08T07:56:44.232Z,38.24
2023-05-08T07:57:44.245Z,37.69
2023-05-08T07:58:44.324Z,37.20
2023-05-08T07:59:44.389Z,37.51
2023-05-08T08:00:44.402Z,36.22
2023-05-08T08:01:44.547Z,36.78
2023-05-08T08:02:44.725Z,40.49
2023-05-08T08:03:44.660Z,37.15
2023-05-08T08:04:44.639Z,37.33
2023-05-08T08:05:44.661Z,36.45
2023-05-08T08:06:44.732Z,41.82
2023-05-08T08:07:44.806Z,36.24
2023-05-08T08:08:44.916Z,38.19
2023-05-08T08:09:44.946Z,35.07
2023-05-08T08:10:44.949Z,42.12
2023-05-08T08:11:44.995Z,41.41
2023-05-08T08:12:45.080Z,40.40
2023-05-08T08:13:45.101Z,37.12
2023-05-08T08:14:45.227Z,39.99
2023-05-08T08:15:45.223Z,41.53
2023-05-08T08:16:45.289Z,39.47
2023-05-08T08:17:45.440Z,39.71
2023-05-08T08:18:45.392Z,43.24
2023-05-08T08:19:45.427Z,40.12
2023-05-08T08:20:45.469Z,39.25
2023-05-08T08:21:45.545Z,37.88
2023-05-08T08:22:45.606Z,41.98
2023-05-08T08:23:45.636Z,41.75
2023-05-08T08:24:45.790Z,44.51
2023-05-08T08:25:45.748Z,41.09
2023-05-08T08:26:45.814Z,38.20
2023-05-08T08:27:45.868Z,38.57
2023-05-08T08:28:45.937Z,44.30
2023-05-08T08:29:45.997Z,42.99
2023-05-08T08:30:46.091Z,39.96
2023-05-08T08:31:46.057Z,38.96
2023-05-08T08:32:46.202Z,41.74
2023-05-08T08:33:46.177Z,38.68
2023-05-08T08:34:46.246Z,41.46
2023-05-08T08:35:46.293Z,45.87
2023-05-08T08:36:46.328Z,41.66
2023-05-08T08:37:46.402Z,40.33
2023-05-08T08:38:46.478Z,41.06
2023-05-08T08:39:46.521Z,40.83
2023-05-08T08:40:46.658Z,41.64
2023-05-08T08:41:46.610Z,39.12
2023-05-08T08:42:46.929Z,42.61
2023-05-08T08:43:46.743Z,40.75
2023-05-08T08:44:46.753Z,38.78
2023-05-08T08:45:46.822Z,42.36
2023-05-08T08:46:46.889Z,41.20
2023-05-08T08:47:47.013Z,43.31
2023-05-08T08:48:46.990Z,44.39
2023-05-08T08:49:47.027Z,42.82
2023-05-08T08:50:47.052Z,46.34
2023-05-08T08:51:47.120Z,44.27
2023-05-08T08:52:47.171Z,42.96
2023-05-08T08:53:47.250Z,44.20
2023-05-08T08:54:47.268Z,44.73
2023-05-08T08:55:47.365Z,47.50
2023-05-08T08:56:47.487Z,45.50
2023-05-08T08:57:47.450Z,45.88
2023-05-08T08:58:47.523Z,44.64
2023-05-08T08:59:47.558Z,44.50
2023-05-08T09:00:47.601Z,55.22
2023-05-08T09:01:47.722Z,52.92
2023-05-08T09:02:47.744Z,46.46
2023-05-08T09:03:49.785Z,50.67
2023-05-08T09:04:47.776Z,57.43
2023-05-08T09:05:47.803Z,57.93
2023-05-08T09:06:47.867Z,61.37
2023-05-08T09:07:47.946Z,65.97
2023-05-08T09:08:47.903Z,67.01
2023-05-08T09:09:47.903Z,74.64
2023-05-08T09:10:47.942Z,76.35
2023-05-08T09:11:47.988Z,78.28
2023-05-08T09:12:48.147Z,85.27
2023-05-08T09:13:48.013Z,89.27
2023-05-08T09:14:47.984Z,91.89
2023-05-08T09:15:48.064Z,96.44
2023-05-08T09:16:48.055Z,97.06
2023-05-08T09:17:48.018Z,101.66
2023-05-08T09:18:47.993Z,102.92
2023-05-08T09:19:48.007Z,105.69
2023-05-08T09:20:48.003Z,111.43
2023-05-08T09:21:47.988Z,113.30
2023-05-08T09:22:48.003Z,113.74
2023-05-08T09:23:48.418Z,120.76
2023-05-08T09:24:48.056Z,122.75
2023-05-08T09:25:48.097Z,125.33
2023-05-08T09:26:48.113Z,129.36
2023-05-08T09:27:48.154Z,133.10
2023-05-08T09:28:48.526Z,135.45
2023-05-08T09:29:48.306Z,137.38
2023-05-08T09:30:48.349Z,142.09
2023-05-08T09:31:48.496Z,144.12
2023-05-08T09:32:48.518Z,148.25
2023-05-08T09:33:48.543Z,152.63
2023-05-08T09:34:48.613Z,153.09
2023-05-08T09:35:48.641Z,157.05
2023-05-08T09:36:48.685Z,158.86
2023-05-08T09:37:48.776Z,159.38
2023-05-08T09:38:48.811Z,163.11
2023-05-08T09:39:48.855Z,166.02
2023-05-08T09:40:48.899Z,166.63
2023-05-08T09:41:48.944Z,166.65
2023-05-08T09:42:48.994Z,170.27
2023-05-08T09:43:49.429Z,172.58
2023-05-08T09:44:49.158Z,175.67
2023-05-08T09:45:49.119Z,177.78
2023-05-08T09:46:49.152Z,180.46
2023-05-08T09:47:49.305Z,183.82
2023-05-08T09:48:49.187Z,183.75
2023-05-08T09:49:49.197Z,186.75
2023-05-08T09:50:49.281Z,187.52
2023-05-08T09:51:49.298Z,187.45
2023-05-08T09:52:49.336Z,191.18
2023-05-08T09:53:49.434Z,187.42
2023-05-08T09:54:49.918Z,186.53
2023-05-08T09:55:49.454Z,186.17
2023-05-08T09:56:49.494Z,185.06
2023-05-08T09:57:49.531Z,182.87
2023-05-08T09:58:49.592Z,185.11
2023-05-08T09:59:49.617Z,181.15
2023-05-08T10:00:49.892Z,180.59
2023-05-08T10:01:49.762Z,180.93
2023-05-08T10:02:49.819Z,177.60
2023-05-08T10:03:49.937Z,171.62
2023-05-08T10:04:49.931Z,170.90
2023-05-08T10:05:49.978Z,168.65
2023-05-08T10:06:50.048Z,165.48
2023-05-08T10:07:50.060Z,163.96
2023-05-08T10:08:50.118Z,161.43
2023-05-08T10:09:51.002Z,162.07
2023-05-08T10:10:50.235Z,165.00
2023-05-08T10:11:50.300Z,163.18
2023-05-08T10:12:50.431Z,157.56
2023-05-08T10:13:50.386Z,158.46
2023-05-08T10:14:50.445Z,161.10
2023-05-08T10:15:50.487Z,153.17
2023-05-08T10:16:50.667Z,151.51
2023-05-08T10:17:50.577Z,159.54
2023-05-08T10:18:50.627Z,158.03
2023-05-08T10:19:50.618Z,156.16
2023-05-08T10:20:50.653Z,159.51
2023-05-08T10:21:50.692Z,158.12
2023-05-08T10:22:50.777Z,156.16
2023-05-08T10:23:50.776Z,156.40
2023-05-08T10:24:50.810Z,153.58
2023-05-08T10:25:52.101Z,153.88
2023-05-08T10:27:05.609Z,154.72
2023-05-08T10:27:51.852Z,155.12
2023-05-08T10:28:50.827Z,155.24
2023-05-08T10:29:51.413Z,154.28
2023-05-08T10:30:50.847Z,155.62
2023-05-08T10:31:50.804Z,153.73
2023-05-08T10:32:50.890Z,153.41
2023-05-08T10:33:50.986Z,150.29
2023-05-08T10:34:50.749Z,152.92
2023-05-08T10:35:50.745Z,149.01
2023-05-08T10:36:52.176Z,150.07
2023-05-08T10:37:50.916Z,149.94
2023-05-08T10:38:50.951Z,147.89
2023-05-08T10:39:50.955Z,148.38
2023-05-08T10:40:50.975Z,149.48
2023-05-08T10:41:50.970Z,146.18
2023-05-08T10:42:51.028Z,145.13
2023-05-08T10:43:51.010Z,147.61
2023-05-08T10:44:51.055Z,145.37
2023-05-08T10:45:51.068Z,144.81
2023-05-08T10:46:51.091Z,145.04
2023-05-08T10:47:51.072Z,143.60
2023-05-08T10:48:51.057Z,142.97
2023-05-08T10:49:51.110Z,141.65
2023-05-08T10:50:51.081Z,143.93
2023-05-08T10:51:51.073Z,140.63
2023-05-08T10:52:51.084Z,142.37
2023-05-08T10:53:51.463Z,140.51
2023-05-08T10:54:51.089Z,141.01
2023-05-08T10:55:51.138Z,142.24
2023-05-08T10:56:51.118Z,140.05
2023-05-08T10:57:51.121Z,140.84
2023-05-08T10:58:51.094Z,137.64
2023-05-08T10:59:51.186Z,137.22
2023-05-08T11:00:51.155Z,136.09
2023-05-08T11:01:51.222Z,136.85
2023-05-08T11:02:51.232Z,136.88
2023-05-08T11:03:51.618Z,134.34
2023-05-08T11:04:51.172Z,136.18
2023-05-08T11:05:51.179Z,132.96
2023-05-08T11:06:51.194Z,136.73
2023-05-08T11:07:51.185Z,132.63
2023-05-08T11:08:51.178Z,130.53
2023-05-08T11:09:51.180Z,133.18
2023-05-08T11:10:51.191Z,131.66
2023-05-08T11:11:51.186Z,132.47
2023-05-08T11:12:51.179Z,129.77
2023-05-08T11:13:51.193Z,130.39
2023-05-08T11:14:51.176Z,129.84
2023-05-08T11:15:51.313Z,130.81
2023-05-08T11:16:51.194Z,131.19
2023-05-08T11:17:51.189Z,128.55
2023-05-08T11:18:51.494Z,129.86
2023-05-08T11:19:51.180Z,128.45
2023-05-08T11:20:51.248Z,130.22
2023-05-08T11:21:51.167Z,127.74
2023-05-08T11:22:51.159Z,127.18
2023-05-08T11:23:51.487Z,127.70
2023-05-08T11:24:51.158Z,126.34
2023-05-08T11:25:51.176Z,125.28
2023-05-08T11:26:51.183Z,125.72
2023-05-08T11:27:51.307Z,124.84
2023-05-08T11:28:51.467Z,127.95
2023-05-08T11:29:51.155Z,124.17
2023-05-08T11:30:51.169Z,122.99
2023-05-08T11:31:51.222Z,122.59
2023-05-08T11:32:51.195Z,123.28
2023-05-08T11:33:51.180Z,122.66
2023-05-08T11:34:51.247Z,123.20
2023-05-08T11:35:51.198Z,122.30
2023-05-08T11:36:51.166Z,125.53
2023-05-08T11:37:51.232Z,121.66
2023-05-08T11:38:51.527Z,123.55
2023-05-08T11:39:51.174Z,123.88
2023-05-08T11:40:51.185Z,122.09
2023-05-08T11:41:51.184Z,123.63
2023-05-08T11:42:51.197Z,122.70
2023-05-08T11:43:51.209Z,120.21
2023-05-08T11:44:51.207Z,121.58
2023-05-08T11:45:51.170Z,119.86
2023-05-08T11:46:51.274Z,118.82
2023-05-08T11:47:51.226Z,122.35
2023-05-08T11:48:51.187Z,120.92
2023-05-08T11:49:51.168Z,118.95
2023-05-08T11:50:51.256Z,117.28
2023-05-08T11:51:51.152Z,118.60
2023-05-08T11:52:51.261Z,118.37
2023-05-08T11:53:51.554Z,119.53
2023-05-08T11:54:51.180Z,118.07
2023-05-08T11:55:51.202Z,119.10
2023-05-08T11:56:51.210Z,116.90
2023-05-08T11:57:51.209Z,116.71
2023-05-08T11:58:51.205Z,117.71
2023-05-08T11:59:51.219Z,115.73
2023-05-08T12:00:51.265Z,118.51
2023-05-08T12:02:51.317Z,117.95
2023-05-08T12:03:51.363Z,117.90
2023-05-08T12:04:51.278Z,116.88
2023-05-08T12:05:51.242Z,115.96
2023-05-08T12:06:51.217Z,115.58
2023-05-08T12:07:51.210Z,115.49
2023-05-08T12:08:51.315Z,113.27
2023-05-08T12:09:51.200Z,114.58
2023-05-08T12:10:51.196Z,112.40
2023-05-08T12:11:51.171Z,112.89
2023-05-08T12:12:51.228Z,113.99
2023-05-08T12:13:51.210Z,114.48
2023-05-08T12:14:51.172Z,110.98
2023-05-08T12:15:51.156Z,110.76
2023-05-08T12:16:51.168Z,113.21
2023-05-08T12:17:51.198Z,111.14
2023-05-08T12:18:51.136Z,109.92
2023-05-08T12:19:51.096Z,110.38
2023-05-08T12:20:51.126Z,108.41
2023-05-08T12:21:51.103Z,110.13
2023-05-08T12:22:51.127Z,112.44
2023-05-08T12:23:51.124Z,111.31
2023-05-08T12:24:51.112Z,110.70
2023-05-08T12:25:52.226Z,108.49
2023-05-08T12:26:51.310Z,108.73
2023-05-08T12:27:51.314Z,108.68
2023-05-08T12:28:51.342Z,109.50
2023-05-08T12:29:51.376Z,110.12
2023-05-08T12:30:51.428Z,106.54
2023-05-08T12:31:51.445Z,109.48
2023-05-08T12:32:51.471Z,108.88
2023-05-08T12:33:51.462Z,109.03
2023-05-08T12:34:51.468Z,106.91
2023-05-08T12:35:51.483Z,105.51
2023-05-08T12:36:51.482Z,108.23
2023-05-08T12:37:51.547Z,106.01
2023-05-08T12:38:51.600Z,108.86
2023-05-08T12:39:51.570Z,106.94
2023-05-08T12:40:51.651Z,105.69
2023-05-08T12:41:51.627Z,108.01
2023-05-08T12:42:51.620Z,106.02
2023-05-08T12:43:51.679Z,104.80
2023-05-08T12:44:51.676Z,103.63
2023-05-08T12:45:51.695Z,102.93
2023-05-08T12:46:51.834Z,104.61